Station: Cleve Airport

  Atmospheric Gas Attenuation - ITU Rec 676-11   --------------- db/100km ---------------
Date Time Temp RH % AH g/m3 Dew Point Wind Direction Speed kph Gust kph Barometer mB Rainfall Since 9am 24GHz 47GHz 76GHz 122GHz 134GHz 241GHz
15 00:10 11.5 94 9.71 10.6 17 19 1018.6 0.6 22.1 28.7 45.9 120.7 117.3 404.3
15 00:00 11.5 94 9.71 10.6 17 20 1018.4 0.4 22.1 28.7 45.9 120.7 117.3 404.3
14 23:50 11.6 94 9.77 10.7 15 19 1018.4 0.2 22.2 28.7 46.1 121.2 118.0 406.7
14 23:40 11.6 94 9.77 10.7 19 20 1018.3 0 22.2 28.7 46.1 121.2 118.0 406.7
14 23:30 11.6 94 9.77 10.7 17 24 1018.2 0 22.2 28.7 46.1 121.2 118.0 406.7
14 23:20 11.5 94 9.71 10.6 19 22 1018.1 0 22.1 28.7 45.9 120.7 117.3 404.2
14 23:10 11.4 94 9.65 10.5 17 19 1018.2 0 22.0 28.6 45.7 120.1 116.6 401.7
14 23:00 11.4 93 9.55 10.3 13 15 1018.1 0 21.7 28.4 45.3 119.0 115.2 396.7
14 22:50 11.4 93 9.55 10.3 13 15 1018.1 0 21.7 28.4 45.3 119.0 115.2 396.7
14 22:40 11.5 93 9.61 10.4 13 15 1018 0 21.9 28.5 45.5 119.5 115.8 399.2
14 22:30 11.6 93 9.67 10.5 17 19 1018 0 22.0 28.6 45.7 120.0 116.5 401.6
14 22:20 11.8 92 9.68 10.5 19 22 1018 0 22.0 28.5 45.6 119.8 116.4 401.1
14 22:10 11.9 92 9.74 10.6 19 20 1018.1 0 22.1 28.6 45.8 120.4 117.1 403.6
14 22:00 11.9 92 9.74 10.6 19 20 1018.1 0 22.1 28.6 45.8 120.4 117.1 403.6
14 21:50 11.9 92 9.74 10.6 19 20 1017.9 0 22.1 28.6 45.8 120.4 117.1 403.5
14 21:40 12.1 91 9.76 10.7 17 20 1018 0 22.2 28.5 45.8 120.3 117.1 403.5
14 21:30 12.2 91 9.82 10.8 20 28 1017.8 0 22.3 28.6 46.0 120.8 117.7 405.9
14 21:20 12.3 91 9.88 10.9 20 24 1017.7 0 22.4 28.7 46.2 121.3 118.4 408.3
14 21:10 12.3 91 9.88 10.9 19 24 1017.8 0 22.4 28.7 46.2 121.3 118.4 408.3
14 21:00 12.3 90 9.77 10.7 17 20 1017.8 0 22.2 28.5 45.7 120.1 116.9 402.9
14 20:50 12.3 90 9.77 10.7 22 30 1017.7 0 22.2 28.5 45.7 120.1 116.9 402.8
14 20:40 12.2 90 9.71 10.6 20 24 1017.6 0 22.0 28.4 45.5 119.5 116.2 400.4
14 20:30 12.1 91 9.76 10.7 17 22 1017.5 0 22.2 28.5 45.7 120.2 117.0 403.3
14 20:20 11.9 91 9.64 10.5 19 20 1017.4 0 21.9 28.4 45.3 119.2 115.6 398.4
14 20:10 12 90 9.59 10.4 15 20 1017.4 0 21.8 28.3 45.1 118.4 114.8 395.4
14 20:00 12.1 90 9.65 10.5 19 20 1017.3 0 21.9 28.3 45.3 118.9 115.4 397.8
14 19:50 12.2 90 9.71 10.6 17 20 1017.1 0 22.0 28.4 45.5 119.5 116.1 400.2
14 19:40 12.4 90 9.83 10.8 20 24 1017 0 22.3 28.5 45.8 120.5 117.5 405.0
14 19:30 12.4 90 9.83 10.8 19 22 1016.9 0 22.3 28.5 45.8 120.5 117.5 405.0
14 19:20 12.5 90 9.9 10.9 19 20 1016.8 0 22.4 28.6 46.1 121.1 118.3 407.9
14 19:10 12.7 90 10.02 11.1 19 22 1016.9 0 22.7 28.8 46.5 122.2 119.7 412.8
14 19:00 12.8 91 10.19 11.4 17 22 1016.8 0 23.0 29.0 47.1 124.0 121.9 420.7
14 18:50 12.9 90 10.14 11.3 19 22 1016.6 0 22.9 28.9 46.9 123.2 121.1 417.6
14 18:40 13 90 10.21 11.4 19 22 1016.6 0 23.1 29.0 47.1 123.9 121.9 420.5
14 18:30 13 90 10.21 11.4 20 24 1016.5 0 23.1 29.0 47.1 123.9 121.9 420.5
14 18:20 13.2 90 10.33 11.6 19 20 1016.5 0 23.3 29.1 47.5 124.9 123.3 425.3
14 18:10 13.3 89 10.28 11.5 22 28 1016.3 0 23.2 29.0 47.2 124.2 122.4 422.2
14 18:00 13.4 88 10.23 11.5 20 22 1016.1 0 23.1 28.9 46.9 123.4 121.5 419.1
14 17:50 13.6 88 10.36 11.7 19 20 1015.9 0 23.4 29.0 47.4 124.6 123.0 424.4
14 17:40 13.9 87 10.43 11.8 19 22 1015.7 0 23.5 29.0 47.5 124.9 123.5 426.1
14 17:30 13.9 87 10.43 11.8 19 24 1015.7 0 23.5 29.0 47.5 124.9 123.5 426.1
14 17:20 13.8 87 10.37 11.7 24 26 1015.6 0 23.4 28.9 47.3 124.3 122.8 423.7
14 17:10 13.9 86 10.31 11.6 20 24 1015.5 0 23.2 28.8 46.9 123.5 121.8 420.2
14 17:00 13.8 86 10.25 11.5 22 28 1015.3 0 23.1 28.7 46.7 122.9 121.1 417.7
14 16:50 14.7 81 10.2 11.5 33 39 1015.1 0 23.0 28.3 46.0 120.9 118.9 410.4
14 16:40 15.5 76 10.05 11.3 28 35 1014.9 0 22.6 27.8 44.9 118.0 115.6 399.0
14 16:30 16.6 70 9.89 11.1 28 32 1014.7 0 22.2 27.2 43.6 114.6 111.8 385.9
14 16:20 17.1 65 9.46 10.5 35 41 1014.6 0 21.3 26.4 41.6 109.3 105.5 363.6
14 16:10 17.2 64 9.37 10.3 30 33 1014.4 0 21.1 26.2 41.2 108.2 104.1 359.0
14 16:00 17.3 62 9.13 10 30 41 1014.2 0 20.5 25.8 40.2 105.5 100.9 347.7
14 15:50 17.6 63 9.45 10.5 30 33 1014.1 0 21.2 26.2 41.3 108.4 104.6 360.8
14 15:40 17.6 64 9.6 10.7 26 28 1014.1 0 21.5 26.4 41.9 110.0 106.6 367.6
14 15:30 17.5 60 8.94 9.7 33 41 1014.1 0 20.1 25.4 39.3 103.3 98.2 338.3
14 15:20 17.5 62 9.24 10.1 39 44 1014 0 20.8 25.9 40.5 106.4 102.0 351.7
14 15:10 16.8 69 9.86 11.1 22 24 1014 0 22.1 27.1 43.3 113.9 111.1 383.3
14 15:00 17.5 65 9.69 10.9 26 33 1013.9 0 21.7 26.6 42.3 111.1 107.9 372.1
14 14:50 18.2 64 9.95 11.3 26 28 1013.8 0 22.2 26.8 42.9 112.8 110.3 380.6
14 14:40 18 61 9.37 10.4 33 37 1013.6 0 21.0 25.9 40.7 107.0 103.0 355.2
14 14:30 17.6 65 9.75 10.9 32 43 1013.6 0 21.8 26.6 42.4 111.5 108.5 374.2
14 14:20 17.8 67 10.17 11.6 33 39 1013.5 0 22.7 27.3 44.0 115.7 113.7 392.5
14 14:10 17.9 67 10.23 11.7 28 33 1013.5 0 22.9 27.3 44.2 116.2 114.3 394.8
14 14:00 17.9 69 10.53 12.1 30 41 1013.6 0 23.5 27.8 45.4 119.5 118.3 408.8
14 13:50 17.6 70 10.5 12.1 30 33 1013.6 0 23.4 27.9 45.5 119.6 118.4 408.9
14 13:40 16.9 74 10.64 12.2 33 39 1013.6 0 23.8 28.3 46.4 122.2 121.4 419.3
14 13:30 16.6 75 10.59 12.2 32 39 1013.7 0 23.7 28.3 46.4 122.1 121.2 418.5
14 13:20 16.9 76 10.93 12.6 30 35 1013.7 0 24.4 28.8 47.7 125.4 125.3 433.1
14 13:10 16.7 76 10.8 12.5 33 39 1013.8 0 24.1 28.7 47.2 124.3 123.9 428.0
14 13:00 16.5 78 10.95 12.7 30 44 1013.9 0 24.5 29.0 48.0 126.3 126.3 436.4
14 12:50 16.9 75 10.79 12.4 32 39 1014 0 24.1 28.6 47.1 123.9 123.5 426.5
14 12:40 16.4 78 10.89 12.6 22 28 1014.2 0 24.3 28.9 47.8 125.9 125.7 434.2
14 12:30 16.7 78 11.08 12.8 26 37 1014.3 0 24.7 29.1 48.4 127.5 127.8 441.7
14 12:20 16.1 74 10.14 11.5 28 35 1014.4 0 22.8 27.8 44.9 118.0 115.9 400.0
14 12:10 16.6 75 10.59 12.2 32 37 1014.5 0 23.7 28.4 46.5 122.2 121.3 418.8
14 12:00 16.1 74 10.14 11.5 32 46 1014.5 0 22.8 27.8 44.9 118.0 115.9 400.0
14 11:50 16.3 75 10.4 11.9 32 39 1014.7 0 23.3 28.1 45.9 120.6 119.2 411.4
14 11:40 16.1 77 10.55 12.1 30 35 1014.8 0 23.6 28.5 46.6 122.6 121.5 419.7
14 11:30 16.1 79 10.83 12.5 26 39 1014.7 0 24.2 28.9 47.8 125.7 125.4 433.1
14 11:20 15.6 81 10.77 12.4 30 39 1014.9 0 24.1 29.0 47.8 125.9 125.4 433.1
14 11:10 15.6 81 10.77 12.4 32 37 1015.1 0 24.1 29.0 47.8 125.9 125.4 433.1
14 11:00 15.5 84 11.1 12.8 28 32 1015.3 0 24.8 29.6 49.3 129.9 130.2 449.9
14 10:50 15.1 83 10.71 12.2 30 37 1015.4 0 24.0 29.1 47.9 126.1 125.4 433.1
14 10:40 15.3 85 11.1 12.8 26 32 1015.6 0 24.9 29.7 49.5 130.2 130.6 451.2
14 10:30 14.9 86 10.96 12.6 30 33 1015.7 0 24.6 29.6 49.1 129.3 129.3 446.6
14 10:20 14.7 86 10.83 12.4 35 41 1015.5 0 24.3 29.4 48.7 128.1 127.8 441.3
14 10:10 14.8 87 11.02 12.7 33 41 1015.5 0 24.7 29.7 49.4 130.1 130.3 450.1
14 10:00 14.4 88 10.88 12.4 32 46 1015.6 0 24.4 29.6 49.1 129.2 129.0 445.5
14 09:50 14.6 90 11.26 13 33 39 1015.6 0 25.2 30.2 50.6 133.3 134.1 463.3
14 09:40 14 91 10.98 12.6 26 32 1015.4 0 24.7 29.9 49.8 131.0 131.1 452.8
14 09:30 14 91 10.98 12.6 28 33 1015.3 0 24.7 29.9 49.8 131.0 131.1 452.7
14 09:20 13.9 92 11.03 12.6 28 33 1015.2 0 24.8 30.0 50.0 131.7 132.0 455.8
14 09:10 13.8 92 10.96 12.5 26 35 1015.2 0 24.6 30.0 49.8 131.1 131.1 452.9
14 09:00 13.8 92 10.96 12.5 28 35 1015 0 24.7 29.9 49.8 131.1 131.1 452.8
14 08:50 13.6 93 10.95 12.5 26 32 1014.8 4.2 24.6 30.0 49.9 131.3 131.3 453.4
14 08:40 13.6 93 10.95 12.5 28 33 1014.7 4.2 24.6 30.0 49.9 131.3 131.3 453.4
14 08:30 13.6 93 10.95 12.5 24 32 1014.6 4 24.6 30.0 49.9 131.2 131.3 453.4
14 08:20 13.6 93 10.95 12.5 22 26 1014.5 3.8 24.6 30.0 49.8 131.2 131.3 453.3
14 08:10 13.6 92 10.83 12.3 24 28 1014.5 3.8 24.4 29.8 49.3 129.8 129.5 447.3
14 08:00 13.7 92 10.89 12.4 24 30 1014.4 3.2 24.5 29.8 49.5 130.3 130.2 449.7
14 07:50 13.7 92 10.89 12.4 30 37 1014.4 3.2 24.5 29.8 49.5 130.3 130.2 449.7
14 07:40 13.7 92 10.89 12.4 28 41 1014.3 2.8 24.5 29.8 49.5 130.3 130.2 449.6

Last Refresh: 15-Jun-2024 00:22:57

Bureau of Meteorology